Airfield :
LOGIN :

Register | Disclaimer

   EN    FR    IT 

 










Legend :    VFR   Marginal VFR   IFR   Intensive IFR   Very Intensive IFR
Visi :
Ceiling :
>= 8 km
>= 3000ft
5 to 8 km
1000 to 3000 ft
1500m to 5 km
500 to 1000 ft
800 to 1500m
200 to 500 ft
< 800m
< 200 ft
Symbols :   Thunderstorms  Fog  Heavy snow  Heavy precipitations  Wind > 20 kt
SIGMETs :     Misc.  Thunderstorms  Icing  Turbulence  Mountain Waves  Volcanic Ashes







- Airport Elevation : 978 ft
- IATA code : LNZ


LOWL - Linz

CURRENT METAR :
  • 161120Z 28010KT 240V300 9999 FEW034 SCT300 06/M01 Q1015 NOSIG

EXPIRED METARs :
  • 161050Z 27010KT 240V300 9999 FEW034 SCT180 06/M02 Q1016 NOSIG
  • 161020Z 26011KT 9999 FEW034 SCT170 05/M01 Q1016 NOSIG
  • 160950Z 25013KT 9999 FEW034 BKN270 05/M01 Q1016 R08/19//95 NOSIG
  • 160920Z 24011KT 9999 FEW030 SCT034 05/M02 Q1017 R08/19//95 NOSIG
  • 160850Z 24010KT 9999 FEW034 SCT036 04/M02 Q1017 R08/19//95 NOSIG

TAF TAF LOWL
Valid from the 16 at 12:00 until the 17 at 12:00 UTC


161115Z 1612/1712 26010KT CAVOK TX06/1612Z TNM02/1703Z
BECMG 1614/1616 29003KT
PROB30 1703/1708 VRB02KT 4000 BR NSC
No reported NOTAMs for that airfield.



MET'MAP, your aeronautical weather chart ! - Copyright ORBIFLY December 2007 - Disclaimer

ORBIFLY MET'MAP TEAM :

Programming & Development : Alexandra Zaïnal
Concept & Development : Baudouin d'Aumeries
Co-Development & Prog : Marc-Olivier Méhu
Technical & hardware support : Manuel Goepfert

Contact : metmap@orbifly.com




SOURCES & CREDITS :

   NOAA